Time;durP1;ratioP1;P1;durP2;ratioP2;P2;SDS_P1;SDS_P2;PMS_P1;PMS_P2;Temp;Humidity;BMP_temperature;BMP_pressure;BME280_temperature;BME280_humidity;BME280_pressure;Samples;Min_cycle;Max_cycle;Signal;HPM_P1;HPM_P2
2022/11/28 00:01:14;;;;;;;12.63;8.27;;;;;;;;;;5164861;27;20510;-68
2022/11/28 00:03:41;;;;;;;15.15;9.38;;;;;;;;;;5147305;27;20054;-68
2022/11/28 00:06:08;;;;;;;16.05;9.27;;;;;;;;;;5166769;27;20519;-69
2022/11/28 00:08:34;;;;;;;13.35;9.05;;;;;;;;;;5160732;27;20335;-69
2022/11/28 00:11:05;;;;;;;14.50;9.40;;;;;;;;;;5156659;27;20051;-69
2022/11/28 00:13:31;;;;;;;16.88;8.45;;;;;;;;;;5165374;27;20995;-69
2022/11/28 00:15:59;;;;;;;14.40;8.77;;;;;;;;;;5164023;27;20054;-69
2022/11/28 00:18:26;;;;;;;13.95;9.48;;;;;;;;;;5164813;27;20515;-69
2022/11/28 00:20:58;;;;;;;13.32;8.75;;;;;;;;;;5161191;27;20054;-69
2022/11/28 00:23:24;;;;;;;12.98;8.95;;;;;;;;;;5163116;27;20058;-69
2022/11/28 00:26:29;;;;;;;16.25;9.25;;;;;;;;;;5165679;27;20057;-69
2022/11/28 00:28:56;;;;;;;15.00;8.93;;;;;;;;;;5060491;28;20052;-69
2022/11/28 00:31:23;;;;;;;14.90;8.70;;;;;;;;;;5075788;28;20049;-69
2022/11/28 00:33:50;;;;;;;12.07;8.95;;;;;;;;;;5078339;28;20058;-68
2022/11/28 00:36:16;;;;;;;14.50;8.35;;;;;;;;;;5079775;28;20211;-68
2022/11/28 00:38:43;;;;;;;15.27;8.68;;;;;;;;;;5079280;28;20430;-68
2022/11/28 00:41:10;;;;;;;15.77;8.88;;;;;;;;;;5073321;28;20521;-69
2022/11/28 00:43:37;;;;;;;11.88;8.15;;;;;;;;;;5079784;28;20074;-69
2022/11/28 00:46:04;;;;;;;14.57;9.68;;;;;;;;;;5080009;28;20045;-70
2022/11/28 00:48:31;;;;;;;13.50;8.35;;;;;;;;;;5079841;28;20056;-69
2022/11/28 00:51:08;;;;;;;19.90;9.80;;;;;;;;;;5079038;28;20052;-70
2022/11/28 00:53:35;;;;;;;16.45;8.27;;;;;;;;;;5079318;28;20048;-70
2022/11/28 00:56:04;;;;;;;22.10;9.52;;;;;;;;;;5080021;28;20636;-69
2022/11/28 00:58:31;;;;;;;14.50;9.60;;;;;;;;;;5080021;28;20595;-70
2022/11/28 01:00:58;;;;;;;14.93;8.73;;;;;;;;;;5146038;27;20146;-70
2022/11/28 01:03:24;;;;;;;14.23;8.18;;;;;;;;;;5163465;27;20050;-70
2022/11/28 01:05:50;;;;;;;12.23;8.48;;;;;;;;;;5165874;27;20084;-70
2022/11/28 01:08:16;;;;;;;13.07;8.70;;;;;;;;;;5164472;27;20047;-69
2022/11/28 01:10:44;;;;;;;17.95;10.75;;;;;;;;;;5164802;27;20051;-69
2022/11/28 01:13:10;;;;;;;12.43;9.00;;;;;;;;;;5163995;27;20050;-70
2022/11/28 01:15:38;;;;;;;9.50;7.88;;;;;;;;;;5160412;27;20198;-70
2022/11/28 01:18:05;;;;;;;14.65;8.95;;;;;;;;;;5165330;27;20052;-70
2022/11/28 01:20:31;;;;;;;13.25;8.60;;;;;;;;;;5165466;27;20053;-70
2022/11/28 01:22:58;;;;;;;16.38;9.45;;;;;;;;;;5145237;27;20520;-69
2022/11/28 01:25:24;;;;;;;17.67;9.80;;;;;;;;;;5159919;27;20047;-69
2022/11/28 01:27:50;;;;;;;13.20;9.15;;;;;;;;;;5163676;27;20043;-69
2022/11/28 01:30:16;;;;;;;15.82;8.55;;;;;;;;;;5163714;27;20535;-69
2022/11/28 01:32:43;;;;;;;13.07;8.57;;;;;;;;;;5164837;27;20062;-69
2022/11/28 01:35:09;;;;;;;15.70;8.65;;;;;;;;;;5160289;27;20057;-69
2022/11/28 01:37:36;;;;;;;12.25;8.73;;;;;;;;;;5144969;27;20126;-69
2022/11/28 01:40:03;;;;;;;13.98;8.70;;;;;;;;;;5165810;27;20062;-67
2022/11/28 01:42:29;;;;;;;16.40;9.18;;;;;;;;;;5162104;27;20050;-69
2022/11/28 01:45:11;;;;;;;14.07;8.68;;;;;;;;;;5162141;27;20050;-69
2022/11/28 01:47:37;;;;;;;12.65;8.38;;;;;;;;;;5163447;27;20166;-69
2022/11/28 01:50:04;;;;;;;13.55;8.20;;;;;;;;;;5163670;27;20496;-69
2022/11/28 01:52:31;;;;;;;11.70;7.97;;;;;;;;;;5144352;27;20051;-69
2022/11/28 01:54:59;;;;;;;11.85;8.45;;;;;;;;;;5159786;27;20060;-69
2022/11/28 01:57:25;;;;;;;12.88;8.32;;;;;;;;;;5147318;27;20572;-69
2022/11/28 01:59:54;;;;;;;12.30;8.48;;;;;;;;;;5164255;27;20447;-69
2022/11/28 02:02:28;;;;;;;12.18;8.27;;;;;;;;;;5161992;27;20049;-69
2022/11/28 02:04:54;;;;;;;15.50;8.40;;;;;;;;;;5160190;27;20651;-69
2022/11/28 02:07:21;;;;;;;12.32;8.80;;;;;;;;;;5156886;27;20047;-68
2022/11/28 02:09:47;;;;;;;13.70;8.48;;;;;;;;;;5164890;27;20047;-69
2022/11/28 02:12:16;;;;;;;13.88;8.18;;;;;;;;;;5163661;27;20519;-69
2022/11/28 02:14:54;;;;;;;11.57;8.30;;;;;;;;;;5160588;27;20042;-69
2022/11/28 02:17:32;;;;;;;11.43;7.90;;;;;;;;;;5143189;27;20047;-69
2022/11/28 02:20:10;;;;;;;12.52;8.18;;;;;;;;;;5154288;27;20043;-69
2022/11/28 02:22:46;;;;;;;11.27;7.85;;;;;;;;;;5163341;27;20134;-69
2022/11/28 02:25:15;;;;;;;12.68;8.50;;;;;;;;;;5158215;27;20052;-69
2022/11/28 02:27:41;;;;;;;13.05;7.95;;;;;;;;;;5162063;27;20061;-69
2022/11/28 02:30:14;;;;;;;14.48;8.20;;;;;;;;;;5164680;27;20054;-69
2022/11/28 02:32:54;;;;;;;10.18;7.30;;;;;;;;;;5146799;27;20647;-69
2022/11/28 02:35:24;;;;;;;11.60;7.90;;;;;;;;;;5162035;27;20047;-68
2022/11/28 02:37:56;;;;;;;9.27;7.97;;;;;;;;;;5164792;27;20501;-68
2022/11/28 02:40:28;;;;;;;15.10;8.27;;;;;;;;;;5167541;27;20057;-69
2022/11/28 02:43:04;;;;;;;10.45;7.22;;;;;;;;;;5167163;27;20233;-69
2022/11/28 02:45:33;;;;;;;11.88;7.78;;;;;;;;;;5163981;27;20051;-69
2022/11/28 02:48:22;;;;;;;10.90;8.00;;;;;;;;;;5166390;27;20520;-69
2022/11/28 02:50:56;;;;;;;8.70;7.35;;;;;;;;;;5165176;27;20058;-69
2022/11/28 02:53:25;;;;;;;10.30;7.90;;;;;;;;;;5146991;27;20047;-69
2022/11/28 02:55:51;;;;;;;9.88;7.93;;;;;;;;;;5150528;27;20058;-69
2022/11/28 02:58:18;;;;;;;12.00;7.57;;;;;;;;;;5166208;27;20552;-69
2022/11/28 03:00:45;;;;;;;10.25;7.78;;;;;;;;;;5151468;27;20067;-69
2022/11/28 03:03:14;;;;;;;11.57;7.80;;;;;;;;;;5146596;27;20608;-69
2022/11/28 03:05:46;;;;;;;9.68;8.32;;;;;;;;;;5148146;27;20131;-69
2022/11/28 03:08:13;;;;;;;12.02;8.35;;;;;;;;;;5159383;27;20495;-68
2022/11/28 03:10:39;;;;;;;11.70;8.93;;;;;;;;;;5166185;27;20469;-69
2022/11/28 03:13:10;;;;;;;14.55;8.35;;;;;;;;;;5167207;27;20068;-69
2022/11/28 03:15:43;;;;;;;11.23;8.40;;;;;;;;;;5167718;27;20131;-69
2022/11/28 03:18:22;;;;;;;12.50;8.10;;;;;;;;;;5167979;27;20047;-70
2022/11/28 03:21:21;;;;;;;11.23;8.50;;;;;;;;;;5151358;27;20100;-70
2022/11/28 03:24:13;;;;;;;11.20;8.00;;;;;;;;;;5060929;28;20204;-69
2022/11/28 03:26:39;;;;;;;12.32;8.40;;;;;;;;;;5046593;28;20458;-69
2022/11/28 03:29:10;;;;;;;11.80;8.52;;;;;;;;;;5062489;28;20094;-69
2022/11/28 03:31:41;;;;;;;13.30;9.02;;;;;;;;;;5082028;28;20040;-69
2022/11/28 03:34:10;;;;;;;14.15;9.07;;;;;;;;;;5077310;28;20143;-69
2022/11/28 03:36:39;;;;;;;14.18;8.93;;;;;;;;;;5070392;28;20057;-69
2022/11/28 03:39:18;;;;;;;11.15;8.70;;;;;;;;;;5080719;28;20044;-68
2022/11/28 03:41:56;;;;;;;16.20;8.75;;;;;;;;;;5074901;28;20424;-69
2022/11/28 03:44:26;;;;;;;14.82;9.35;;;;;;;;;;5073484;28;20055;-68
2022/11/28 03:46:53;;;;;;;13.35;9.35;;;;;;;;;;5080389;28;20088;-69
2022/11/28 03:49:24;;;;;;;15.80;9.30;;;;;;;;;;5079936;28;20053;-69
2022/11/28 03:51:53;;;;;;;14.40;9.25;;;;;;;;;;5081255;28;20131;-68
2022/11/28 03:54:38;;;;;;;13.50;8.95;;;;;;;;;;5081318;28;20045;-69
2022/11/28 03:57:16;;;;;;;12.60;9.10;;;;;;;;;;5067137;28;20048;-69
2022/11/28 03:59:47;;;;;;;15.70;9.07;;;;;;;;;;5124914;27;20598;-69
2022/11/28 04:02:19;;;;;;;13.68;8.95;;;;;;;;;;5163169;27;20050;-69
2022/11/28 04:04:52;;;;;;;15.35;9.00;;;;;;;;;;5148264;27;20043;-70
2022/11/28 04:07:25;;;;;;;15.93;10.00;;;;;;;;;;5163231;27;20571;-69
2022/11/28 04:10:12;;;;;;;14.80;9.73;;;;;;;;;;5161544;27;20051;-69
2022/11/28 04:12:54;;;;;;;14.05;9.52;;;;;;;;;;5165408;27;20552;-69
2022/11/28 04:15:39;;;;;;;15.77;10.07;;;;;;;;;;5165950;27;20532;-69
2022/11/28 04:18:15;;;;;;;15.98;10.13;;;;;;;;;;5162400;27;20073;-69
2022/11/28 04:20:41;;;;;;;;;;;;;;;;;;5149199;27;20134;-69
2022/11/28 04:23:10;;;;;;;14.48;9.73;;;;;;;;;;5155330;27;46534;-69
2022/11/28 04:25:39;;;;;;;17.08;9.23;;;;;;;;;;5164566;27;20047;-69
2022/11/28 04:28:11;;;;;;;18.70;11.15;;;;;;;;;;5152059;27;20092;-69
2022/11/28 04:30:39;;;;;;;18.35;10.40;;;;;;;;;;5166113;27;20051;-69
2022/11/28 04:33:08;;;;;;;18.52;11.35;;;;;;;;;;5166092;27;20104;-69
2022/11/28 04:35:45;;;;;;;19.27;11.70;;;;;;;;;;5163727;27;20050;-69
2022/11/28 04:38:12;;;;;;;15.27;10.00;;;;;;;;;;5145142;27;20051;-68
2022/11/28 04:40:59;;;;;;;17.38;11.25;;;;;;;;;;5161449;27;20228;-69
2022/11/28 04:43:28;;;;;;;15.18;10.32;;;;;;;;;;5165563;27;20502;-69
2022/11/28 04:45:57;;;;;;;15.90;10.73;;;;;;;;;;5159932;27;20509;-69
2022/11/28 04:48:24;;;;;;;22.00;11.50;;;;;;;;;;5165302;27;20495;-69
2022/11/28 04:51:19;;;;;;;17.75;10.80;;;;;;;;;;5145183;27;20488;-69
2022/11/28 04:53:51;;;;;;;17.77;10.00;;;;;;;;;;5151678;27;20505;-69
2022/11/28 04:56:20;;;;;;;15.70;10.95;;;;;;;;;;5162504;27;20560;-68
2022/11/28 04:58:48;;;;;;;26.38;12.10;;;;;;;;;;5165185;27;20050;-68
2022/11/28 05:01:20;;;;;;;17.77;11.40;;;;;;;;;;5163102;27;20107;-68
2022/11/28 05:03:47;;;;;;;18.65;10.60;;;;;;;;;;5148330;27;20058;-69
2022/11/28 05:06:26;;;;;;;17.00;11.23;;;;;;;;;;5160976;27;20513;-69
2022/11/28 05:08:53;;;;;;;19.17;11.95;;;;;;;;;;5164024;27;20358;-69
2022/11/28 05:11:19;;;;;;;15.65;11.48;;;;;;;;;;5162010;27;20146;-68
2022/11/28 05:13:46;;;;;;;16.50;11.27;;;;;;;;;;5164261;27;20047;-69
2022/11/28 05:16:13;;;;;;;16.33;11.00;;;;;;;;;;5163856;27;20107;-68
2022/11/28 05:18:40;;;;;;;18.70;11.75;;;;;;;;;;5151586;27;20074;-69
2022/11/28 05:21:07;;;;;;;16.58;11.05;;;;;;;;;;5164873;27;20051;-69
2022/11/28 05:23:35;;;;;;;18.23;11.27;;;;;;;;;;5161596;27;20057;-69
2022/11/28 05:26:09;;;;;;;16.25;10.95;;;;;;;;;;5164056;27;20572;-68
2022/11/28 05:28:36;;;;;;;17.05;11.25;;;;;;;;;;5158981;27;20516;-69
2022/11/28 05:31:02;;;;;;;18.98;11.65;;;;;;;;;;5155972;27;20115;-68
2022/11/28 05:33:29;;;;;;;17.15;11.18;;;;;;;;;;5161927;27;20051;-69
2022/11/28 05:35:56;;;;;;;19.40;11.48;;;;;;;;;;5163847;27;20458;-68
2022/11/28 05:38:22;;;;;;;19.45;11.95;;;;;;;;;;5162180;27;20520;-68
2022/11/28 05:40:49;;;;;;;21.00;11.48;;;;;;;;;;5163692;27;20078;-68
2022/11/28 05:43:15;;;;;;;17.55;10.30;;;;;;;;;;5161705;27;20046;-68
2022/11/28 05:45:42;;;;;;;18.70;11.32;;;;;;;;;;5161919;27;20568;-68
2022/11/28 05:48:08;;;;;;;19.15;11.57;;;;;;;;;;5161235;27;20518;-68
2022/11/28 05:50:37;;;;;;;16.30;10.73;;;;;;;;;;5164037;27;20207;-68
2022/11/28 05:53:05;;;;;;;17.00;11.48;;;;;;;;;;5164723;27;20047;-68
2022/11/28 05:55:32;;;;;;;16.45;11.45;;;;;;;;;;5162854;27;20485;-68
2022/11/28 05:57:58;;;;;;;21.92;11.55;;;;;;;;;;5157556;27;20115;-69
2022/11/28 06:00:25;;;;;;;20.02;11.57;;;;;;;;;;5161561;27;20472;-70
2022/11/28 06:02:51;;;;;;;16.00;11.05;;;;;;;;;;5164159;27;20541;-70
2022/11/28 06:05:23;;;;;;;16.30;10.57;;;;;;;;;;5159069;27;20050;-70
2022/11/28 06:08:07;;;;;;;17.73;10.65;;;;;;;;;;5164378;27;20050;-69
2022/11/28 06:10:34;;;;;;;19.63;11.48;;;;;;;;;;5163259;27;20050;-69
2022/11/28 06:13:01;;;;;;;19.90;11.50;;;;;;;;;;5163637;27;20132;-68
2022/11/28 06:15:29;;;;;;;17.30;10.68;;;;;;;;;;5165953;27;20527;-69
2022/11/28 06:18:01;;;;;;;16.23;11.18;;;;;;;;;;5167213;27;20527;-69
2022/11/28 06:20:28;;;;;;;20.50;11.48;;;;;;;;;;5167838;27;20477;-69
2022/11/28 06:22:54;;;;;;;19.20;10.75;;;;;;;;;;5165543;27;20466;-68
2022/11/28 06:25:20;;;;;;;18.90;10.05;;;;;;;;;;5167812;27;20055;-69
2022/11/28 06:27:46;;;;;;;16.85;10.98;;;;;;;;;;5166549;27;20443;-69
2022/11/28 06:30:13;;;;;;;19.50;10.07;;;;;;;;;;5168111;27;20489;-69
2022/11/28 06:32:39;;;;;;;14.30;9.35;;;;;;;;;;5168284;27;20072;-69
2022/11/28 06:35:06;;;;;;;19.40;10.48;;;;;;;;;;5165114;27;20047;-69
2022/11/28 06:37:32;;;;;;;16.25;10.75;;;;;;;;;;5166800;27;20054;-69
2022/11/28 06:39:58;;;;;;;19.70;11.63;;;;;;;;;;5166538;27;20178;-68
2022/11/28 06:42:25;;;;;;;17.63;10.25;;;;;;;;;;5167010;27;20131;-68
2022/11/28 06:44:51;;;;;;;17.27;10.43;;;;;;;;;;5151845;27;20043;-68
2022/11/28 06:47:17;;;;;;;17.60;11.48;;;;;;;;;;5164616;27;20100;-68
2022/11/28 06:49:44;;;;;;;16.17;10.45;;;;;;;;;;5160565;27;20500;-70
2022/11/28 06:52:10;;;;;;;19.85;10.98;;;;;;;;;;5162635;27;20146;-70
2022/11/28 06:54:37;;;;;;;16.00;10.90;;;;;;;;;;5164463;27;20093;-70
2022/11/28 06:57:03;;;;;;;19.20;11.48;;;;;;;;;;5166190;27;20055;-70
2022/11/28 06:59:29;;;;;;;16.45;11.10;;;;;;;;;;5155907;27;20047;-69
2022/11/28 07:02:00;;;;;;;18.40;10.73;;;;;;;;;;5161853;27;20746;-70
2022/11/28 07:04:32;;;;;;;20.75;11.07;;;;;;;;;;5144960;27;20050;-70
2022/11/28 07:06:59;;;;;;;16.58;11.68;;;;;;;;;;5163908;27;20502;-70
2022/11/28 07:09:25;;;;;;;19.58;12.40;;;;;;;;;;5166924;27;20061;-70
2022/11/28 07:11:51;;;;;;;18.88;11.88;;;;;;;;;;5153812;27;20051;-70
2022/11/28 07:14:18;;;;;;;17.63;11.32;;;;;;;;;;5166366;27;20059;-70
2022/11/28 07:16:44;;;;;;;19.83;11.75;;;;;;;;;;5165740;27;20051;-70
2022/11/28 07:19:11;;;;;;;21.02;12.18;;;;;;;;;;5160390;27;20047;-69
2022/11/28 07:21:38;;;;;;;16.38;11.80;;;;;;;;;;5151109;27;20118;-70
2022/11/28 07:24:04;;;;;;;21.25;12.85;;;;;;;;;;5144688;27;20528;-69
2022/11/28 07:26:30;;;;;;;20.08;12.70;;;;;;;;;;5155084;27;20051;-70
2022/11/28 07:28:58;;;;;;;21.65;12.50;;;;;;;;;;5163872;27;20062;-70
2022/11/28 07:31:26;;;;;;;21.98;13.70;;;;;;;;;;5158128;27;21028;-70
2022/11/28 07:33:53;;;;;;;16.75;11.07;;;;;;;;;;5161331;27;20047;-69
2022/11/28 07:36:20;;;;;;;19.92;11.73;;;;;;;;;;5155580;27;20051;-69
2022/11/28 07:38:48;;;;;;;20.30;12.73;;;;;;;;;;5150730;27;20517;-69
2022/11/28 07:41:15;;;;;;;22.52;12.55;;;;;;;;;;5161160;27;20053;-69
2022/11/28 07:43:42;;;;;;;21.65;12.52;;;;;;;;;;5155627;27;20049;-69
2022/11/28 07:46:10;;;;;;;19.27;12.23;;;;;;;;;;5163446;27;20047;-69
2022/11/28 07:48:37;;;;;;;21.42;12.05;;;;;;;;;;5131857;27;20059;-70
2022/11/28 07:51:07;;;;;;;18.65;11.73;;;;;;;;;;5159299;27;20053;-69
2022/11/28 07:53:34;;;;;;;19.65;12.35;;;;;;;;;;5166346;27;20045;-69
2022/11/28 07:56:04;;;;;;;19.90;12.30;;;;;;;;;;5166923;27;20334;-69
2022/11/28 07:58:31;;;;;;;21.50;12.32;;;;;;;;;;5159625;27;20876;-69
2022/11/28 08:00:57;;;;;;;20.20;12.38;;;;;;;;;;5146813;27;20504;-68
2022/11/28 08:03:23;;;;;;;23.67;12.30;;;;;;;;;;5162797;27;20440;-69
2022/11/28 08:05:50;;;;;;;25.08;12.35;;;;;;;;;;5160079;27;20039;-69
2022/11/28 08:08:16;;;;;;;21.77;11.73;;;;;;;;;;5150830;27;20479;-69
2022/11/28 08:10:43;;;;;;;20.38;11.60;;;;;;;;;;5150393;27;20051;-69
2022/11/28 08:13:10;;;;;;;22.85;11.90;;;;;;;;;;5146802;27;20127;-69
2022/11/28 08:15:37;;;;;;;19.80;11.68;;;;;;;;;;5165631;27;20527;-69
2022/11/28 08:18:03;;;;;;;23.00;12.45;;;;;;;;;;5161697;27;20546;-68
2022/11/28 08:20:30;;;;;;;24.40;12.48;;;;;;;;;;5160143;27;20047;-69
2022/11/28 08:22:56;;;;;;;20.00;11.07;;;;;;;;;;5163715;27;20050;-69
2022/11/28 08:25:23;;;;;;;19.35;11.88;;;;;;;;;;5165147;27;20100;-69
2022/11/28 08:27:49;;;;;;;23.63;12.57;;;;;;;;;;5165280;27;20054;-69
2022/11/28 08:30:15;;;;;;;23.63;11.60;;;;;;;;;;5162918;27;20046;-69
2022/11/28 08:32:42;;;;;;;25.15;13.10;;;;;;;;;;5157565;27;20051;-68
2022/11/28 08:35:08;;;;;;;23.65;12.00;;;;;;;;;;5147177;27;20058;-69
2022/11/28 08:37:34;;;;;;;21.90;11.55;;;;;;;;;;5165188;27;20120;-69
2022/11/28 08:40:00;;;;;;;23.98;12.85;;;;;;;;;;5165307;27;20459;-69
2022/11/28 08:42:27;;;;;;;20.38;11.77;;;;;;;;;;5163164;27;20055;-69
2022/11/28 08:44:53;;;;;;;21.13;11.93;;;;;;;;;;5162965;27;20499;-69
2022/11/28 08:47:20;;;;;;;24.45;13.05;;;;;;;;;;5163503;27;20058;-69
2022/11/28 08:49:46;;;;;;;25.55;13.13;;;;;;;;;;5151928;27;20054;-69
2022/11/28 08:52:12;;;;;;;24.60;13.77;;;;;;;;;;5164445;27;20047;-69
2022/11/28 08:54:40;;;;;;;23.90;12.93;;;;;;;;;;5166118;27;20050;-69
2022/11/28 08:57:07;;;;;;;26.25;14.25;;;;;;;;;;5163858;27;20059;-69
2022/11/28 08:59:33;;;;;;;24.55;12.30;;;;;;;;;;5161606;27;20051;-69
2022/11/28 09:01:59;;;;;;;22.38;12.15;;;;;;;;;;5161447;27;20051;-69
2022/11/28 09:04:26;;;;;;;25.33;13.95;;;;;;;;;;5163135;27;20055;-69
2022/11/28 09:06:52;;;;;;;27.83;13.82;;;;;;;;;;5164136;27;20568;-69
2022/11/28 09:09:18;;;;;;;26.20;13.38;;;;;;;;;;5144019;27;20047;-69
2022/11/28 09:11:45;;;;;;;22.65;12.98;;;;;;;;;;5152118;27;20205;-69
2022/11/28 09:14:11;;;;;;;23.25;12.60;;;;;;;;;;5153312;27;20055;-68
2022/11/28 09:16:38;;;;;;;27.65;14.85;;;;;;;;;;5155581;27;20058;-69
2022/11/28 09:19:07;;;;;;;26.88;14.30;;;;;;;;;;5154363;27;20039;-69
2022/11/28 09:21:34;;;;;;;29.48;15.70;;;;;;;;;;5143461;27;20051;-69
2022/11/28 09:24:00;;;;;;;33.55;14.82;;;;;;;;;;5143884;27;20051;-69
2022/11/28 09:26:27;;;;;;;33.53;15.90;;;;;;;;;;5148584;27;20534;-69
2022/11/28 09:28:54;;;;;;;26.58;15.00;;;;;;;;;;5155930;27;20146;-69
2022/11/28 09:31:20;;;;;;;34.30;15.77;;;;;;;;;;5159758;27;20042;-69
2022/11/28 09:33:50;;;;;;;35.17;16.58;;;;;;;;;;5146264;27;20063;-71
2022/11/28 09:36:17;;;;;;;35.05;15.45;;;;;;;;;;5144051;27;20122;-69
2022/11/28 09:38:44;;;;;;;33.10;16.60;;;;;;;;;;5153604;27;20058;-69
2022/11/28 09:41:26;;;;;;;37.40;16.35;;;;;;;;;;5158968;27;20051;-69
2022/11/28 09:43:54;;;;;;;38.53;17.38;;;;;;;;;;5146663;27;20063;-69
2022/11/28 09:46:25;;;;;;;42.30;18.00;;;;;;;;;;5156921;27;20058;-69
2022/11/28 09:48:53;;;;;;;46.38;17.55;;;;;;;;;;5154070;27;20049;-69
2022/11/28 09:51:31;;;;;;;42.78;17.75;;;;;;;;;;5163075;27;20557;-69
2022/11/28 09:54:19;;;;;;;44.55;19.40;;;;;;;;;;5163813;27;20050;-69
2022/11/28 09:56:47;;;;;;;38.03;17.63;;;;;;;;;;5159201;27;20527;-69
2022/11/28 09:59:23;;;;;;;48.85;18.85;;;;;;;;;;5157728;27;20112;-69
2022/11/28 10:01:52;;;;;;;39.80;17.17;;;;;;;;;;5157461;27;20515;-69
2022/11/28 10:04:38;;;;;;;41.67;18.10;;;;;;;;;;5133892;27;20111;-69
2022/11/28 10:07:07;;;;;;;45.53;17.23;;;;;;;;;;5162875;27;20043;-69
2022/11/28 10:09:49;;;;;;;42.50;17.42;;;;;;;;;;5152299;27;20050;-69
2022/11/28 10:12:18;;;;;;;55.17;20.70;;;;;;;;;;5159129;27;20051;-69
2022/11/28 10:14:53;;;;;;;49.22;19.50;;;;;;;;;;5155622;27;20062;-69
2022/11/28 10:17:35;;;;;;;48.78;20.00;;;;;;;;;;5160635;27;20047;-68
2022/11/28 10:20:02;;;;;;;50.17;19.58;;;;;;;;;;5152146;27;20208;-69
2022/11/28 10:22:49;;;;;;;56.83;20.42;;;;;;;;;;5146341;27;20050;-69
2022/11/28 10:25:22;;;;;;;58.28;20.52;;;;;;;;;;5156181;27;20050;-69
2022/11/28 10:27:49;;;;;;;57.08;20.23;;;;;;;;;;5159421;27;20463;-69
2022/11/28 10:30:23;;;;;;;62.50;21.67;;;;;;;;;;5152586;27;20080;-68
2022/11/28 10:33:05;;;;;;;56.40;22.08;;;;;;;;;;5160540;27;20071;-68
2022/11/28 10:35:37;;;;;;;63.58;22.05;;;;;;;;;;5164037;27;20055;-69
2022/11/28 10:38:08;;;;;;;72.82;21.70;;;;;;;;;;5148645;27;20058;-68
2022/11/28 10:40:41;;;;;;;66.97;23.58;;;;;;;;;;5147392;27;20058;-69
2022/11/28 10:43:10;;;;;;;79.72;24.20;;;;;;;;;;5142879;27;20048;-69
2022/11/28 10:45:44;;;;;;;75.18;23.80;;;;;;;;;;5159186;27;20055;-69
2022/11/28 10:48:18;;;;;;;79.18;23.42;;;;;;;;;;5136708;27;20508;-69
2022/11/28 10:51:15;;;;;;;74.53;25.20;;;;;;;;;;5162328;27;20511;-69
2022/11/28 10:53:44;;;;;;;78.03;23.25;;;;;;;;;;5163324;27;20082;-69
2022/11/28 10:56:16;;;;;;;77.28;23.77;;;;;;;;;;5161123;27;20523;-69
2022/11/28 10:58:46;;;;;;;78.55;24.08;;;;;;;;;;5161944;27;20394;-68
2022/11/28 11:01:12;;;;;;;71.18;24.75;;;;;;;;;;5154015;27;20577;-68
2022/11/28 11:03:39;;;;;;;88.78;26.30;;;;;;;;;;5165580;27;20129;-69
2022/11/28 11:06:06;;;;;;;75.18;24.75;;;;;;;;;;5153273;27;20232;-68
2022/11/28 11:08:33;;;;;;;74.53;25.00;;;;;;;;;;5155461;27;20062;-69
2022/11/28 11:11:03;;;;;;;74.43;23.23;;;;;;;;;;5156457;27;20178;-68
2022/11/28 11:13:34;;;;;;;77.57;25.38;;;;;;;;;;5165965;27;20584;-68
2022/11/28 11:16:05;;;;;;;81.70;25.67;;;;;;;;;;5159753;27;20583;-68
2022/11/28 11:18:33;;;;;;;137.23;32.90;;;;;;;;;;5146173;27;20432;-71
2022/11/28 11:21:07;;;;;;;62.70;22.90;;;;;;;;;;5154996;27;20047;-66
2022/11/28 11:23:34;;;;;;;80.70;24.58;;;;;;;;;;5161002;27;20061;-68
2022/11/28 11:26:04;;;;;;;81.60;24.35;;;;;;;;;;5164578;27;20050;-67
2022/11/28 11:28:31;;;;;;;92.28;26.10;;;;;;;;;;5165151;27;20047;-68
2022/11/28 11:30:59;;;;;;;90.18;26.95;;;;;;;;;;5155435;27;20100;-67
2022/11/28 11:33:28;;;;;;;90.00;27.27;;;;;;;;;;5161340;27;20051;-68
2022/11/28 11:35:54;;;;;;;86.10;27.25;;;;;;;;;;5164516;27;20103;-68
2022/11/28 11:38:20;;;;;;;84.90;25.60;;;;;;;;;;5163421;27;20059;-68
2022/11/28 11:40:48;;;;;;;82.75;25.98;;;;;;;;;;5146717;27;20100;-68
2022/11/28 11:43:31;;;;;;;84.68;24.63;;;;;;;;;;5154133;27;20196;-67
2022/11/28 11:46:11;;;;;;;84.00;25.95;;;;;;;;;;5158810;27;20051;-68
2022/11/28 11:48:42;;;;;;;86.88;25.90;;;;;;;;;;5151908;27;20050;-67
2022/11/28 11:51:22;;;;;;;70.50;23.85;;;;;;;;;;5161577;27;20133;-68
2022/11/28 11:53:58;;;;;;;84.18;25.77;;;;;;;;;;5166462;27;20046;-68
2022/11/28 11:56:26;;;;;;;83.45;24.77;;;;;;;;;;5164827;27;20054;-69
2022/11/28 11:58:54;;;;;;;84.72;27.48;;;;;;;;;;5158914;27;20046;-68
2022/11/28 12:01:21;;;;;;;84.20;25.55;;;;;;;;;;5165964;27;20039;-68
2022/11/28 12:03:52;;;;;;;82.65;26.27;;;;;;;;;;5165131;27;20046;-67
2022/11/28 12:06:23;;;;;;;85.35;25.77;;;;;;;;;;5145829;27;20074;-68
2022/11/28 12:08:51;;;;;;;81.18;26.35;;;;;;;;;;5164290;27;20054;-68
2022/11/28 12:11:22;;;;;;;82.85;25.35;;;;;;;;;;5161399;27;20130;-67
2022/11/28 12:13:48;;;;;;;66.75;24.35;;;;;;;;;;5160653;27;20051;-67
2022/11/28 12:16:33;;;;;;;79.70;25.80;;;;;;;;;;5145150;27;20047;-68
2022/11/28 12:19:12;;;;;;;76.13;24.70;;;;;;;;;;5154301;27;21444;-68
2022/11/28 12:21:42;;;;;;;84.22;25.85;;;;;;;;;;5165754;27;20590;-68
2022/11/28 12:24:11;;;;;;;68.78;25.08;;;;;;;;;;5166141;27;20054;-68
2022/11/28 12:26:56;;;;;;;70.93;26.02;;;;;;;;;;5159889;27;20051;-68
2022/11/28 12:29:37;;;;;;;67.57;23.90;;;;;;;;;;5145919;27;20044;-68
2022/11/28 12:32:18;;;;;;;70.68;23.88;;;;;;;;;;5124266;27;20139;-67
2022/11/28 12:35:01;;;;;;;75.65;23.33;;;;;;;;;;5160216;27;20054;-68
2022/11/28 12:37:27;;;;;;;63.42;22.77;;;;;;;;;;5150831;27;20054;-68
2022/11/28 12:40:13;;;;;;;66.47;22.60;;;;;;;;;;5163577;27;20099;-68
2022/11/28 12:42:51;;;;;;;66.75;24.42;;;;;;;;;;5165031;27;20047;-68
2022/11/28 12:45:27;;;;;;;69.30;23.73;;;;;;;;;;5162370;27;20038;-68
2022/11/28 12:47:54;;;;;;;70.70;24.08;;;;;;;;;;5157117;27;20134;-68
2022/11/28 12:50:23;;;;;;;73.07;25.45;;;;;;;;;;5144472;27;20058;-68
2022/11/28 12:52:49;;;;;;;68.18;23.92;;;;;;;;;;5155249;27;20046;-67
2022/11/28 12:55:15;;;;;;;61.35;22.45;;;;;;;;;;5159214;27;20062;-68
2022/11/28 12:57:45;;;;;;;72.78;24.00;;;;;;;;;;5159713;27;20043;-68
2022/11/28 13:00:19;;;;;;;70.28;25.20;;;;;;;;;;5165666;27;20082;-68
2022/11/28 13:03:03;;;;;;;70.20;24.63;;;;;;;;;;5165548;27;20054;-68
2022/11/28 13:05:44;;;;;;;66.47;23.67;;;;;;;;;;5163058;27;20131;-69
2022/11/28 13:08:16;;;;;;;71.63;25.25;;;;;;;;;;5163673;27;20513;-68
2022/11/28 13:10:43;;;;;;;65.20;23.10;;;;;;;;;;5156566;27;20166;-67
2022/11/28 13:13:16;;;;;;;79.28;24.50;;;;;;;;;;5147050;27;20051;-69
2022/11/28 13:15:51;;;;;;;69.07;23.98;;;;;;;;;;5153695;27;20439;-68
2022/11/28 13:18:19;;;;;;;64.45;24.05;;;;;;;;;;5162215;27;20645;-68
2022/11/28 13:20:48;;;;;;;68.70;22.90;;;;;;;;;;5154334;27;20150;-69
2022/11/28 13:23:27;;;;;;;65.32;23.83;;;;;;;;;;5157677;27;20538;-67
2022/11/28 13:26:12;;;;;;;62.95;23.60;;;;;;;;;;5156416;27;20457;-69
2022/11/28 13:28:49;;;;;;;78.50;25.67;;;;;;;;;;5161544;27;20051;-68
2022/11/28 13:31:23;;;;;;;66.38;24.23;;;;;;;;;;5160654;27;20536;-69
2022/11/28 13:33:56;;;;;;;70.88;25.77;;;;;;;;;;5152338;27;20143;-68
2022/11/28 13:36:35;;;;;;;96.93;35.75;;;;;;;;;;5161303;27;20508;-69
2022/11/28 13:39:29;;;;;;;67.93;24.63;;;;;;;;;;5150830;27;20512;-68
2022/11/28 13:42:05;;;;;;;65.30;26.10;;;;;;;;;;5152732;27;20050;-67
2022/11/28 13:44:59;;;;;;;71.85;36.30;;;;;;;;;;5147192;27;20158;-69
2022/11/28 13:47:27;;;;;;;64.68;24.98;;;;;;;;;;5133040;27;20527;-68
2022/11/28 13:50:12;;;;;;;61.58;25.02;;;;;;;;;;5163158;27;20077;-68
2022/11/28 13:52:41;;;;;;;57.75;22.75;;;;;;;;;;5165014;27;20059;-67
2022/11/28 13:55:28;;;;;;;61.25;23.83;;;;;;;;;;5164290;27;20051;-68
2022/11/28 13:57:55;;;;;;;67.15;24.63;;;;;;;;;;5163935;27;20055;-67
2022/11/28 14:00:22;;;;;;;55.53;21.17;;;;;;;;;;5145402;27;20047;-69
2022/11/28 14:02:53;;;;;;;57.83;23.17;;;;;;;;;;5163419;27;20051;-69
2022/11/28 14:05:38;;;;;;;61.08;25.02;;;;;;;;;;5163299;27;20138;-68
2022/11/28 14:08:07;;;;;;;61.22;23.45;;;;;;;;;;5163663;27;20516;-69
2022/11/28 14:10:36;;;;;;;61.47;25.23;;;;;;;;;;5162837;27;20054;-68
2022/11/28 14:13:03;;;;;;;65.03;23.23;;;;;;;;;;5164455;27;20145;-69
2022/11/28 14:15:32;;;;;;;55.40;21.70;;;;;;;;;;5160975;27;20138;-68
2022/11/28 14:18:05;;;;;;;54.83;22.05;;;;;;;;;;5136525;27;20047;-69
2022/11/28 14:20:52;;;;;;;63.15;23.10;;;;;;;;;;5157914;27;20051;-68
2022/11/28 14:23:21;;;;;;;56.55;21.95;;;;;;;;;;5163330;27;20055;-68
2022/11/28 14:25:49;;;;;;;59.22;23.42;;;;;;;;;;5159449;27;20108;-68
2022/11/28 14:28:20;;;;;;;61.67;24.63;;;;;;;;;;5129924;27;20083;-69
2022/11/28 14:30:47;;;;;;;60.40;24.77;;;;;;;;;;5151082;27;20062;-68
2022/11/28 14:33:13;;;;;;;62.58;24.35;;;;;;;;;;5155411;27;20423;-68
2022/11/28 14:35:49;;;;;;;63.55;23.10;;;;;;;;;;5161405;27;20126;-68
2022/11/28 14:38:31;;;;;;;63.88;23.00;;;;;;;;;;5151580;27;20055;-68
2022/11/28 14:40:58;;;;;;;62.58;23.55;;;;;;;;;;5146480;27;20124;-68